KDCM

Chester Catawba Regional Airport

Chester, South Carolina, USA
METAR KDCM 221515Z AUTO 20006KT 10SM SCT021 SCT026 25/17 A3017 RMK AO2 LTG DSNT SW AND NW
Observed Flight Rules
May-22 @ 15:15 UTC (18 minutes ago) Visual Flight Rules
Wind Visibility Clouds
200° at 6 knots 10 miles
  • Scattered at 2,100' AGL
  • Scattered at 2,600' AGL
Temperatures Readings
Current 25°C / 77°F
Dewpoint 17°C / 63°F
Humidity 61%
Altimeter 30.17" Hg
Pressure 1022 hPa
Elevation 200
METAR KDCM 221515Z AUTO 20006KT 10SM SCT021 SCT026 25/17 A3017 RMK AO2 LTG DSNT SW AND NW
Observed Flight Rules
May-22 @ 15:15 UTC
(18 minutes ago)
VFR
Wind Visibility
200° at 6 knots 10 miles
Clouds
  • Scattered at 2,100' AGL
  • Scattered at 2,600' AGL
Temperature Dewpoint
25°C / 77°F 17°C / 63°F
Humidity Altimeter Pressure
61% 30.17" Hg 1022 hPa